createdAt,value
2023-01-17T00:02:26.397Z,81.16
2023-01-17T00:05:12.474Z,80.99
2023-01-17T00:07:59.680Z,80.95
2023-01-17T00:10:29.503Z,81.03
2023-01-17T00:12:59.708Z,80.86
2023-01-17T00:15:29.090Z,81.01
2023-01-17T00:17:58.647Z,81.01
2023-01-17T00:20:46.351Z,80.71
2023-01-17T00:23:35.633Z,80.78
2023-01-17T00:26:04.955Z,81.17
2023-01-17T00:28:34.684Z,80.95
2023-01-17T00:31:02.504Z,80.63
2023-01-17T00:33:29.876Z,81.14
2023-01-17T00:35:58.289Z,80.91
2023-01-17T00:38:28.772Z,80.94
2023-01-17T00:41:02.104Z,80.64
2023-01-17T00:43:49.299Z,80.87
2023-01-17T00:46:36.005Z,80.64
2023-01-17T00:49:22.491Z,80.55
2023-01-17T00:52:08.194Z,80.84
2023-01-17T00:54:55.358Z,80.49
2023-01-17T00:57:41.163Z,80.46
2023-01-17T01:00:28.284Z,80.79
2023-01-17T01:03:13.918Z,81.15
2023-01-17T01:05:59.647Z,80.88
2023-01-17T01:08:47.518Z,81.10
2023-01-17T01:11:36.335Z,81.12
2023-01-17T01:14:23.612Z,81.41
2023-01-17T01:17:09.351Z,81.25
2023-01-17T01:19:54.979Z,80.96
2023-01-17T01:22:40.675Z,80.94
2023-01-17T01:25:27.434Z,80.83
2023-01-17T01:28:23.848Z,80.23
2023-01-17T01:31:09.871Z,80.34
2023-01-17T01:33:38.249Z,80.48
2023-01-17T01:36:09.283Z,80.59
2023-01-17T01:38:38.357Z,80.53
2023-01-17T01:41:07.516Z,80.38
2023-01-17T01:43:47.352Z,80.27
2023-01-17T01:46:19.900Z,80.04
2023-01-17T01:48:50.180Z,80.41
2023-01-17T01:51:23.663Z,80.29
2023-01-17T01:53:55.832Z,80.33
2023-01-17T01:56:24.976Z,80.32
2023-01-17T01:58:55.394Z,80.13
2023-01-17T02:01:23.975Z,80.01
2023-01-17T02:03:53.148Z,80.02
2023-01-17T02:06:29.400Z,80.49
2023-01-17T02:09:00.244Z,80.47
2023-01-17T02:11:28.748Z,80.67
2023-01-17T02:13:59.135Z,81.25
2023-01-17T02:16:47.579Z,81.13
2023-01-17T02:19:51.061Z,81.33
2023-01-17T02:23:03.309Z,81.33
2023-01-17T02:25:54.038Z,81.54
2023-01-17T02:28:39.951Z,81.46
2023-01-17T02:31:15.960Z,81.43
2023-01-17T02:33:51.340Z,81.17
2023-01-17T02:36:25.298Z,81.33
2023-01-17T02:38:58.043Z,81.33
2023-01-17T02:41:32.722Z,81.90
2023-01-17T02:44:04.215Z,81.92
2023-01-17T02:46:34.041Z,81.70
2023-01-17T02:49:02.959Z,82.06
2023-01-17T02:51:57.863Z,81.58
2023-01-17T02:55:01.361Z,81.41
2023-01-17T02:57:55.380Z,81.53
2023-01-17T03:00:30.428Z,81.61
2023-01-17T03:03:06.500Z,81.39
2023-01-17T03:05:41.643Z,81.60
2023-01-17T03:08:12.155Z,81.72
2023-01-17T03:10:42.851Z,81.89
2023-01-17T03:13:11.208Z,81.76
2023-01-17T03:15:41.534Z,81.80
2023-01-17T03:18:14.872Z,81.79
2023-01-17T03:20:43.813Z,81.77
2023-01-17T03:23:12.125Z,81.73
2023-01-17T03:25:40.490Z,81.95
2023-01-17T03:28:08.825Z,81.70
2023-01-17T03:30:37.192Z,82.06
2023-01-17T03:33:06.113Z,81.89
2023-01-17T03:35:36.295Z,81.67
2023-01-17T03:38:04.754Z,81.27
2023-01-17T03:40:33.339Z,80.23
2023-01-17T03:43:01.725Z,79.27
2023-01-17T03:45:30.034Z,78.76
2023-01-17T03:47:58.411Z,77.98
2023-01-17T03:50:26.964Z,77.04
2023-01-17T03:52:56.970Z,77.77
2023-01-17T03:55:25.722Z,77.65
2023-01-17T03:57:54.076Z,77.96
2023-01-17T04:00:23.529Z,77.57
2023-01-17T04:02:51.869Z,77.37
2023-01-17T04:05:20.270Z,77.35
2023-01-17T04:07:48.566Z,77.19
2023-01-17T04:10:18.927Z,77.49
2023-01-17T04:12:47.763Z,77.93
2023-01-17T04:15:16.747Z,78.46
2023-01-17T04:17:45.289Z,78.78
2023-01-17T04:20:18.353Z,78.47
2023-01-17T04:22:47.020Z,78.21
2023-01-17T04:25:15.723Z,78.03
2023-01-17T04:27:45.452Z,77.04
2023-01-17T04:30:14.455Z,76.71
2023-01-17T04:32:42.810Z,76.40
2023-01-17T04:35:11.425Z,76.00
2023-01-17T04:37:39.786Z,75.80
2023-01-17T04:40:09.352Z,75.69
2023-01-17T04:42:37.760Z,76.02
2023-01-17T04:45:08.935Z,75.86
2023-01-17T04:47:37.379Z,76.15
2023-01-17T04:50:06.472Z,76.03
2023-01-17T04:52:35.188Z,75.42
2023-01-17T04:55:03.640Z,75.50
2023-01-17T04:57:32.072Z,75.67
2023-01-17T05:00:00.861Z,75.44
2023-01-17T05:02:30.705Z,75.65
2023-01-17T05:04:59.143Z,75.87
2023-01-17T05:07:27.922Z,75.96
2023-01-17T05:09:59.961Z,75.60
2023-01-17T05:12:28.782Z,76.18
2023-01-17T05:14:57.063Z,75.83
2023-01-17T05:17:25.835Z,75.57
2023-01-17T05:19:55.809Z,75.70
2023-01-17T05:22:24.419Z,75.82
2023-01-17T05:24:53.079Z,76.17
2023-01-17T05:27:21.384Z,76.05
2023-01-17T05:29:50.029Z,76.06
2023-01-17T05:32:18.650Z,75.98
2023-01-17T05:34:47.019Z,76.36
2023-01-17T05:37:17.064Z,76.49
2023-01-17T05:39:45.454Z,76.45
2023-01-17T05:42:13.732Z,76.38
2023-01-17T05:44:42.538Z,76.66
2023-01-17T05:47:10.850Z,76.90
2023-01-17T05:49:39.886Z,76.77
2023-01-17T05:52:08.567Z,76.55
2023-01-17T05:54:38.406Z,76.50
2023-01-17T05:57:06.738Z,76.44
2023-01-17T05:59:37.333Z,76.91
2023-01-17T06:02:06.103Z,76.94
2023-01-17T06:04:35.097Z,77.22
2023-01-17T06:07:03.813Z,77.07
2023-01-17T06:09:32.117Z,76.93
2023-01-17T06:12:02.087Z,77.40
2023-01-17T06:14:30.425Z,77.20
2023-01-17T06:16:58.691Z,77.46
2023-01-17T06:19:27.186Z,77.61
2023-01-17T06:21:55.483Z,77.82
2023-01-17T06:24:25.306Z,77.59
2023-01-17T06:26:53.619Z,76.78
2023-01-17T06:29:23.863Z,76.74
2023-01-17T06:31:52.187Z,76.57
2023-01-17T06:34:20.624Z,76.05
2023-01-17T06:36:48.916Z,75.35
2023-01-17T06:39:17.303Z,75.52
2023-01-17T06:41:45.947Z,74.93
2023-01-17T06:44:14.683Z,74.92
2023-01-17T06:46:45.211Z,74.50
2023-01-17T06:49:13.857Z,74.75
2023-01-17T06:51:43.712Z,74.61
2023-01-17T06:54:12.490Z,73.99
2023-01-17T06:56:41.107Z,74.68
2023-01-17T06:59:09.513Z,74.69
2023-01-17T07:01:38.018Z,75.14
2023-01-17T07:04:08.409Z,74.87
2023-01-17T07:06:37.824Z,74.86
2023-01-17T07:09:06.549Z,75.19
2023-01-17T07:11:34.932Z,74.75
2023-01-17T07:14:03.732Z,75.05
2023-01-17T07:16:32.139Z,75.01
2023-01-17T07:19:00.509Z,74.75
2023-01-17T07:21:30.230Z,74.77
2023-01-17T07:23:58.551Z,74.47
2023-01-17T07:26:26.796Z,74.13
2023-01-17T07:28:55.151Z,74.22
2023-01-17T07:31:23.493Z,73.83
2023-01-17T07:33:51.813Z,73.92
2023-01-17T07:36:20.230Z,74.04
2023-01-17T07:38:49.920Z,74.20
2023-01-17T07:41:18.188Z,74.08
2023-01-17T07:43:46.730Z,74.56
2023-01-17T07:46:15.448Z,75.11
2023-01-17T07:48:44.131Z,74.98
2023-01-17T07:51:12.589Z,75.52
2023-01-17T07:53:40.944Z,75.44
2023-01-17T07:56:10.869Z,75.69
2023-01-17T07:58:39.215Z,75.61
2023-01-17T08:01:09.728Z,75.38
2023-01-17T08:03:40.235Z,74.62
2023-01-17T08:06:16.050Z,75.04
2023-01-17T08:08:44.424Z,75.49
2023-01-17T08:11:14.186Z,75.65
2023-01-17T08:13:42.581Z,76.60
2023-01-17T08:16:11.779Z,76.57
2023-01-17T08:18:40.521Z,76.53
2023-01-17T08:21:15.544Z,76.17
2023-01-17T08:23:43.936Z,76.17
2023-01-17T08:26:22.423Z,75.80
2023-01-17T08:28:55.838Z,75.97
2023-01-17T08:31:25.396Z,76.00
2023-01-17T08:33:53.853Z,76.42
2023-01-17T08:36:22.185Z,76.96
2023-01-17T08:38:52.928Z,76.76
2023-01-17T08:41:22.903Z,77.33
2023-01-17T08:43:53.436Z,77.27
2023-01-17T08:46:22.523Z,77.97
2023-01-17T08:48:55.911Z,76.99
2023-01-17T08:51:26.494Z,76.72
2023-01-17T08:53:56.395Z,76.41
2023-01-17T08:56:27.410Z,76.44
2023-01-17T08:58:55.848Z,77.07
2023-01-17T09:01:24.306Z,77.71
2023-01-17T09:03:53.079Z,77.71
2023-01-17T09:06:21.951Z,77.72
2023-01-17T09:08:54.925Z,77.17
2023-01-17T09:11:23.383Z,77.43
2023-01-17T09:13:53.082Z,77.30
2023-01-17T09:16:22.064Z,77.36
2023-01-17T09:18:50.406Z,77.58
2023-01-17T09:21:19.934Z,77.06
2023-01-17T09:23:49.433Z,76.99
2023-01-17T09:26:20.255Z,76.98
2023-01-17T09:28:49.221Z,77.38
2023-01-17T09:31:20.958Z,77.99
2023-01-17T09:33:49.776Z,78.43
2023-01-17T09:36:18.532Z,79.03
2023-01-17T09:38:46.987Z,79.53
2023-01-17T09:41:24.126Z,79.39
2023-01-17T09:43:56.100Z,79.88
2023-01-17T09:46:30.308Z,79.86
2023-01-17T09:49:07.499Z,79.77
2023-01-17T09:51:38.209Z,79.50
2023-01-17T09:54:06.875Z,79.82
2023-01-17T09:56:42.552Z,79.59
2023-01-17T09:59:32.685Z,79.11
2023-01-17T10:02:21.131Z,79.13
2023-01-17T10:05:07.642Z,79.03
2023-01-17T10:07:46.866Z,79.36
2023-01-17T10:10:29.235Z,79.15
2023-01-17T10:13:02.235Z,79.13
2023-01-17T10:15:45.415Z,79.05
2023-01-17T10:19:00.819Z,79.21
2023-01-17T10:21:42.779Z,79.15
2023-01-17T10:24:26.685Z,78.79
2023-01-17T10:26:57.481Z,78.94
2023-01-17T10:29:30.163Z,79.38
2023-01-17T10:32:00.973Z,79.98
2023-01-17T10:34:37.779Z,79.82
2023-01-17T10:37:18.083Z,79.98
2023-01-17T10:39:49.538Z,80.20
2023-01-17T10:42:24.609Z,79.60
2023-01-17T10:45:00.777Z,79.40
2023-01-17T10:47:33.141Z,79.13
2023-01-17T10:50:05.335Z,78.44
2023-01-17T10:52:40.675Z,77.88
2023-01-17T10:55:20.531Z,76.86
2023-01-17T10:57:52.410Z,76.77
2023-01-17T11:00:33.680Z,76.68
2023-01-17T11:03:03.719Z,75.96
2023-01-17T11:05:35.192Z,75.91
2023-01-17T11:08:06.453Z,74.95
2023-01-17T11:10:40.121Z,74.70
2023-01-17T11:13:24.703Z,73.90
2023-01-17T11:15:57.844Z,72.78
2023-01-17T11:18:30.264Z,73.00
2023-01-17T11:21:13.615Z,73.45
2023-01-17T11:23:44.055Z,74.00
2023-01-17T11:26:22.187Z,74.17
2023-01-17T11:28:52.053Z,74.18
2023-01-17T11:31:27.976Z,74.60
2023-01-17T11:34:16.825Z,74.94
2023-01-17T11:36:47.583Z,75.03
2023-01-17T11:39:29.722Z,74.79
2023-01-17T11:41:58.594Z,74.65
2023-01-17T11:44:29.070Z,75.08
2023-01-17T11:47:17.116Z,74.12
2023-01-17T11:49:47.498Z,73.46
2023-01-17T11:52:24.566Z,72.85
2023-01-17T11:54:55.544Z,72.58
2023-01-17T11:57:27.386Z,72.69
2023-01-17T12:00:02.791Z,71.29
2023-01-17T12:03:13.671Z,69.87
2023-01-17T12:06:05.787Z,69.91
2023-01-17T12:08:55.335Z,69.37
2023-01-17T12:11:32.213Z,68.94
2023-01-17T12:14:09.329Z,68.46
2023-01-17T12:17:01.762Z,67.07
2023-01-17T12:19:39.081Z,67.62
2023-01-17T12:22:22.262Z,67.91
2023-01-17T12:25:08.735Z,69.19
2023-01-17T12:27:47.070Z,69.06
2023-01-17T12:30:33.588Z,69.08
2023-01-17T12:33:22.098Z,69.33
2023-01-17T12:35:54.807Z,69.47
2023-01-17T12:38:32.793Z,68.90
2023-01-17T12:41:08.739Z,69.25
2023-01-17T12:43:41.120Z,69.30
2023-01-17T12:46:20.972Z,69.02
2023-01-17T12:48:53.945Z,69.18
2023-01-17T12:51:29.465Z,68.99
2023-01-17T12:54:03.280Z,67.91
2023-01-17T12:56:37.749Z,67.76
2023-01-17T12:59:16.955Z,66.91
2023-01-17T13:01:57.838Z,67.11
2023-01-17T13:04:30.767Z,67.70
2023-01-17T13:07:08.634Z,66.57
2023-01-17T13:09:44.039Z,66.49
2023-01-17T13:12:16.567Z,65.97
2023-01-17T13:14:46.825Z,65.71
2023-01-17T13:17:27.919Z,66.00
2023-01-17T13:20:02.612Z,66.33
2023-01-17T13:22:33.187Z,65.40
2023-01-17T13:25:14.141Z,65.23
2023-01-17T13:28:10.834Z,64.86
2023-01-17T13:31:17.285Z,62.66
2023-01-17T13:34:02.796Z,63.04
2023-01-17T13:36:46.669Z,61.60
2023-01-17T13:39:51.077Z,61.07
2023-01-17T13:42:27.743Z,60.94
2023-01-17T13:44:58.397Z,60.86
2023-01-17T13:47:41.842Z,59.63
2023-01-17T13:51:02.324Z,60.01
2023-01-17T13:53:47.332Z,59.93
2023-01-17T13:56:25.194Z,60.20
2023-01-17T13:59:02.296Z,59.89
2023-01-17T14:01:57.031Z,58.72
2023-01-17T14:04:26.897Z,59.41
2023-01-17T14:07:03.955Z,58.67
2023-01-17T14:09:42.469Z,59.39
2023-01-17T14:12:35.038Z,58.63
2023-01-17T14:15:05.791Z,57.12
2023-01-17T14:17:57.019Z,56.07
2023-01-17T14:20:51.978Z,55.30
2023-01-17T14:23:41.830Z,55.36
2023-01-17T14:26:23.903Z,55.17
2023-01-17T14:28:53.826Z,55.75
2023-01-17T14:31:24.329Z,55.44
2023-01-17T14:33:54.372Z,54.46
2023-01-17T14:36:29.629Z,54.16
2023-01-17T14:38:58.416Z,55.09
2023-01-17T14:41:29.920Z,54.82
2023-01-17T14:44:01.313Z,55.36
2023-01-17T14:46:32.350Z,54.54
2023-01-17T14:49:04.235Z,54.55
2023-01-17T14:51:35.213Z,55.10
2023-01-17T14:54:06.931Z,54.18
2023-01-17T14:56:35.541Z,54.69
2023-01-17T14:59:14.551Z,55.36
2023-01-17T15:01:48.066Z,55.40
2023-01-17T15:04:29.178Z,55.59
2023-01-17T15:06:59.832Z,56.00
2023-01-17T15:09:30.784Z,54.01
2023-01-17T15:11:59.984Z,52.36
2023-01-17T15:14:33.484Z,51.79
2023-01-17T15:17:11.126Z,53.15
2023-01-17T16:26:14.601Z,55.01
2023-01-17T16:32:27.419Z,55.78
2023-01-17T16:39:26.507Z,56.68
2023-01-17T16:42:59.328Z,57.51
2023-01-17T16:45:39.469Z,57.89
2023-01-17T16:53:01.556Z,58.03
2023-01-17T16:57:11.164Z,58.93
2023-01-17T17:00:49.204Z,59.35
2023-01-17T17:14:30.534Z,59.63
2023-01-17T17:18:08.047Z,58.85
2023-01-17T18:25:09.222Z,58.85
2023-01-17T18:28:05.655Z,58.49
2023-01-17T18:32:08.227Z,58.27
2023-01-17T18:35:20.393Z,58.14
2023-01-17T18:53:46.098Z,60.06
2023-01-17T19:12:48.533Z,61.35
2023-01-17T21:39:42.442Z,61.56
2023-01-17T21:42:10.717Z,61.33
2023-01-17T21:44:39.043Z,61.16
2023-01-17T21:47:07.349Z,61.29
2023-01-17T22:31:15.565Z,62.42
2023-01-17T22:46:39.924Z,58.75
2023-01-17T22:50:20.028Z,58.80
2023-01-17T23:31:52.171Z,59.78
2023-01-17T23:34:20.601Z,59.57
